Saturday, October 25, 2014
17:34 UTC
  |  Log In   |  Register Free
Airport Search:

Oroville Municipal Airport
(KOVE)

Oroville Municipal Airport Diagram
No Airport Diagram Available

FAA data valid effective September 18, 2014 - November 13, 2014 (unless otherwise noted).

 
 
 
 
 
 
 
 
 
 
 
 
 
 

Current Aviation Weather for Oroville Municipal Airport (KOVE)

The most recent METAR observation for KOVE was updated at: 1717
METAR Summary (Translated METAR)
KOVE
251653Z AUTO 13014KT 10SM SCT110 15/13 A3000 RMK AO2 RAE49 SLP160 P0002 T01500128
KCIC
251648Z 12020G27KT 25SM SCT025 BKN055 BKN100 15/12 A2995
(21.5 nm NW from KOVE)
KBAB
251658Z AUTO 15013KT 6SM -RA BR OVC048 15/14 A3000 RMK AO2 RAB1622DZB1624E1628 SLP235 P0004 T01460143 $
(22.8 nm SE from KOVE)
TAF Summary (Translated TAF)
KBAB
(22.8 nm SE from KOVE)
2423/2601 15009KT 9999 FEW250 QNH2988INS BECMG 2512/2513 16015KT 9999 SCT100 BKN150 QNH2992INS BECMG 2516/2517 16015G25KT 4800 -SHRA BR SCT020 BKN040 QNH2990INS BECMG 2523/2524 16015KT 9999 NSW BKN070 QNH2992INS T26/2421Z T08/2511Z AMD 242354 LAST NO AMDS AFT 2423 NEXT 2711
  Airport Weather Conditions for KOVE

 Current Weather at OVE
59° F
Partly Cloudy
Southeast winds at 16.1 mph
OVE NOAA Radar

Pressure: 30.00 in
Humidity: 87%
Wind: Southeast at 16.1 MPH (14 KT)
Dew Point: 55.0°F
Visibility: 10.00 mi


Airport Weather Forecast for KOVE

Translated METAR and TAF for KOVE
Translated METAR for KOVE (1729 UTC 25 October 2014)
found at http://aviationweather.gov/adds/metars/
 
METAR text: KOVE 251653Z AUTO 13014KT 10SM SCT110 15/13 A3000 RMK AO2 RAE49 SLP160 P0002 T01500128
Conditions at: KOVE (OROVILLE , CA, US) observed 1653 UTC 25 October 2014
Temperature: 15.0°C (59°F)
Dewpoint: 12.8°C (55°F) [RH = 87%]
Pressure (altimeter): 30.00 inches Hg (1016.0 mb)
[Sea-level pressure: 1016.0 mb]
Winds: from the SE (130 degrees) at 16 MPH (14 knots; 7.3 m/s)
Visibility: 10 or more miles (16+ km)
Ceiling: at least 12,000 feet AGL
Clouds: scattered clouds at 11000 feet AGL
Weather: automated observation with no human augmentation;
there may or may not be significant weather present at this time
Translated TAF for KOVE

There is no translated TAF available for this airport

Find All Airport Services Find A Hotel Find A Rental Car Find A Golf Course Find A Restaurant $100 Hamburger



FBO's on the Field
FBO Company Facility Photos Services Transportation Aviation Fuel Prices: Prices include tax
Catering Weather Repair Courtesy Rental Type 100LL JetA JetA+ MOGAS 8087
 
Oroville Municipal Airport

This FBO has not yet been rated
FS:Epic
Last Updated: Oct-20
Login to update fuel prices
SS:
Contact Oroville Municipal AirportMore FBO Information
 
Add another FBO Facility Photos Catering Weather Repair Courtesy Rental Type 100LL JetA JetA+ MOGAS 8087
Services Transportation Aviation Fuel Prices: Prices include tax


model-print
model-print
model-print
model-print